createdAt,value
2022-10-23T00:01:53.959Z,1.00
2022-10-23T00:04:26.365Z,1.00
2022-10-23T00:06:57.081Z,1.00
2022-10-23T00:09:26.226Z,1.00
2022-10-23T00:14:26.996Z,1.00
2022-10-23T00:16:56.321Z,1.00
2022-10-23T00:21:54.330Z,1.00
2022-10-23T00:24:23.813Z,1.00
2022-10-23T00:26:52.255Z,1.00
2022-10-23T00:29:21.637Z,1.00
2022-10-23T00:34:22.227Z,1.00
2022-10-23T00:36:52.891Z,1.00
2022-10-23T00:39:21.124Z,1.00
2022-10-23T00:41:50.655Z,1.00
2022-10-23T00:45:10.544Z,1.00
2022-10-23T00:47:40.378Z,1.00
2022-10-23T00:50:10.196Z,1.00
2022-10-23T00:52:46.254Z,1.00
2022-10-23T00:55:15.576Z,1.00
2022-10-23T00:57:47.642Z,1.00
2022-10-23T01:00:21.413Z,1.00
2022-10-23T01:02:52.622Z,1.00
2022-10-23T01:05:32.599Z,1.00
2022-10-23T01:08:08.879Z,1.00
2022-10-23T01:10:46.456Z,1.00
2022-10-23T01:13:24.703Z,1.00
2022-10-23T01:16:01.661Z,1.00
2022-10-23T01:18:42.962Z,1.00
2022-10-23T01:21:19.461Z,1.00
2022-10-23T01:24:12.838Z,1.00
2022-10-23T01:27:13.922Z,1.00
2022-10-23T01:29:47.618Z,1.00
2022-10-23T01:32:24.192Z,1.00
2022-10-23T01:34:59.624Z,1.00
2022-10-23T01:37:39.353Z,1.00
2022-10-23T01:40:18.147Z,1.00
2022-10-23T01:42:56.886Z,1.00
2022-10-23T01:45:38.414Z,1.00
2022-10-23T01:48:11.009Z,1.00
2022-10-23T01:50:42.264Z,1.00
2022-10-23T01:53:11.996Z,1.00
2022-10-23T01:55:44.603Z,1.00
2022-10-23T01:58:21.964Z,1.00
2022-10-23T02:00:54.097Z,1.00
2022-10-23T02:03:23.995Z,1.00
2022-10-23T02:05:54.788Z,1.00
2022-10-23T02:08:23.133Z,1.00
2022-10-23T02:11:05.471Z,1.00
2022-10-23T02:13:40.622Z,1.00
2022-10-23T02:16:26.108Z,1.00
2022-10-23T02:19:05.615Z,1.00
2022-10-23T02:21:40.721Z,1.00
2022-10-23T02:24:14.555Z,1.00
2022-10-23T02:26:57.959Z,1.00
2022-10-23T02:29:32.378Z,1.00
2022-10-23T02:32:03.330Z,1.00
2022-10-23T02:34:31.451Z,1.00
2022-10-23T02:37:00.185Z,1.00
2022-10-23T02:39:29.263Z,1.00
2022-10-23T02:42:07.795Z,1.00
2022-10-23T02:44:56.913Z,1.00
2022-10-23T02:47:42.168Z,1.00
2022-10-23T02:50:22.723Z,1.00
2022-10-23T02:53:01.463Z,1.00
2022-10-23T02:55:45.626Z,1.00
2022-10-23T02:58:25.057Z,1.00
2022-10-23T03:01:06.176Z,1.00
2022-10-23T03:03:41.517Z,1.00
2022-10-23T03:06:12.358Z,1.00
2022-10-23T03:08:46.738Z,1.00
2022-10-23T03:11:17.509Z,1.00
2022-10-23T03:13:45.644Z,1.00
2022-10-23T03:16:16.568Z,1.00
2022-10-23T03:18:51.765Z,1.00
2022-10-23T03:21:22.494Z,1.00
2022-10-23T03:23:54.371Z,1.00
2022-10-23T03:26:36.082Z,1.00
2022-10-23T03:29:05.734Z,1.00
2022-10-23T03:31:40.245Z,1.00
2022-10-23T03:36:43.227Z,1.00
2022-10-23T03:39:12.739Z,1.00
2022-10-23T03:41:44.883Z,1.00
2022-10-23T03:44:12.995Z,1.00
2022-10-23T03:46:47.116Z,1.00
2022-10-23T03:49:15.341Z,1.00
2022-10-23T03:51:51.935Z,1.00
2022-10-23T03:54:24.397Z,1.00
2022-10-23T03:56:56.512Z,1.00
2022-10-23T03:59:27.930Z,1.00
2022-10-23T04:01:59.949Z,1.00
2022-10-23T04:04:28.570Z,1.00
2022-10-23T04:06:57.922Z,1.00
2022-10-23T04:09:26.223Z,1.00
2022-10-23T04:11:58.706Z,1.00
2022-10-23T04:14:29.435Z,1.00
2022-10-23T04:16:59.157Z,1.00
2022-10-23T04:19:28.946Z,1.00
2022-10-23T04:21:59.538Z,1.00
2022-10-23T04:29:32.416Z,1.00
2022-10-23T04:32:03.142Z,1.00
2022-10-23T04:34:32.480Z,1.00
2022-10-23T04:37:01.825Z,1.00
2022-10-23T04:42:00.988Z,1.00
2022-10-23T04:44:29.169Z,1.00
2022-10-23T04:46:59.714Z,1.00
2022-10-23T04:49:30.460Z,1.00
2022-10-23T04:52:26.048Z,1.00
2022-10-23T04:57:52.642Z,1.00
2022-10-23T05:00:25.192Z,1.00
2022-10-23T05:02:56.345Z,1.00
2022-10-23T05:05:26.121Z,1.00
2022-10-23T05:10:48.455Z,1.00
2022-10-23T05:13:19.714Z,1.00
2022-10-23T05:15:49.028Z,1.00
2022-10-23T05:18:26.477Z,1.00
2022-10-23T05:21:04.098Z,1.00
2022-10-23T05:23:37.536Z,1.00
2022-10-23T05:26:07.527Z,1.00
2022-10-23T05:28:36.986Z,1.00
2022-10-23T05:31:07.602Z,1.00
2022-10-23T05:33:41.088Z,1.00
2022-10-23T05:36:13.576Z,1.00
2022-10-23T05:38:45.788Z,1.00
2022-10-23T05:41:19.590Z,1.00
2022-10-23T05:43:47.916Z,1.00
2022-10-23T05:46:52.536Z,1.00
2022-10-23T05:49:39.539Z,1.00
2022-10-23T05:52:33.374Z,1.00
2022-10-23T05:58:00.122Z,1.00
2022-10-23T06:01:09.220Z,1.00
2022-10-23T06:03:57.671Z,1.00
2022-10-23T06:06:33.675Z,1.00
2022-10-23T06:09:03.692Z,1.00
2022-10-23T06:11:36.761Z,1.00
2022-10-23T06:14:10.566Z,1.00
2022-10-23T06:16:41.857Z,1.00
2022-10-23T06:19:12.185Z,1.00
2022-10-23T06:24:17.108Z,1.00
2022-10-23T06:26:53.146Z,1.00
2022-10-23T06:29:42.860Z,1.00
2022-10-23T06:32:14.459Z,1.00
2022-10-23T06:34:47.949Z,1.00
2022-10-23T06:37:17.374Z,1.00
2022-10-23T06:39:52.484Z,1.00
2022-10-23T06:42:26.697Z,1.00
2022-10-23T06:44:56.343Z,1.00
2022-10-23T06:47:45.008Z,1.00
2022-10-23T06:53:08.218Z,1.00
2022-10-23T06:55:42.357Z,1.00
2022-10-23T06:58:13.118Z,1.00
2022-10-23T07:01:00.762Z,1.00
2022-10-23T07:03:30.929Z,1.00
2022-10-23T07:06:02.243Z,1.00
2022-10-23T07:08:32.102Z,1.00
2022-10-23T07:11:08.302Z,1.00
2022-10-23T07:13:38.936Z,1.00
2022-10-23T07:16:25.824Z,1.00
2022-10-23T07:18:59.334Z,1.00
2022-10-23T07:21:34.617Z,1.00
2022-10-23T07:24:18.817Z,1.00
2022-10-23T07:29:18.836Z,1.00
2022-10-23T07:31:50.902Z,1.00
2022-10-23T07:34:39.051Z,1.00
2022-10-23T07:37:27.085Z,1.00
2022-10-23T07:42:28.140Z,1.00
2022-10-23T07:44:56.368Z,1.00
2022-10-23T07:47:25.033Z,1.00
2022-10-23T07:49:54.513Z,1.00
2022-10-23T07:52:25.401Z,1.00
2022-10-23T07:55:21.159Z,1.00
2022-10-23T07:57:56.792Z,1.00
2022-10-23T08:00:43.385Z,1.00
2022-10-23T08:03:27.655Z,1.00
2022-10-23T08:05:57.189Z,1.00
2022-10-23T08:08:27.880Z,1.00
2022-10-23T08:11:02.941Z,1.00
2022-10-23T08:13:39.578Z,1.00
2022-10-23T08:16:09.377Z,1.00
2022-10-23T08:19:08.703Z,1.00
2022-10-23T08:21:42.206Z,1.00
2022-10-23T08:24:13.900Z,1.00
2022-10-23T08:26:45.960Z,1.00
2022-10-23T08:29:17.233Z,1.00
2022-10-23T08:31:48.150Z,1.00
2022-10-23T08:34:26.970Z,1.00
2022-10-23T08:36:56.031Z,1.00
2022-10-23T08:39:25.716Z,99.90
2022-10-23T08:42:07.026Z,99.90
2022-10-23T08:44:48.757Z,99.90
2022-10-23T08:47:28.759Z,99.90
2022-10-23T08:50:01.327Z,99.90
2022-10-23T08:52:37.845Z,99.90
2022-10-23T08:55:19.074Z,99.90
2022-10-23T08:57:57.176Z,99.90
2022-10-23T09:00:28.936Z,99.90
2022-10-23T09:02:58.578Z,99.90
2022-10-23T09:05:32.387Z,99.90
2022-10-23T09:08:16.976Z,99.90
2022-10-23T09:11:05.168Z,99.90
2022-10-23T09:13:57.629Z,99.90
2022-10-23T09:16:44.390Z,99.90
2022-10-23T09:19:17.806Z,99.90
2022-10-23T09:21:50.353Z,97.90
2022-10-23T09:24:21.179Z,90.60
2022-10-23T09:26:52.160Z,60.50
2022-10-23T09:29:25.803Z,42.30
2022-10-23T09:31:59.675Z,29.90
2022-10-23T09:34:31.849Z,1.00
2022-10-23T09:37:03.972Z,1.00
2022-10-23T09:39:34.611Z,1.00
2022-10-23T09:42:22.813Z,1.00
2022-10-23T09:44:54.535Z,1.00
2022-10-23T09:47:28.463Z,1.00
2022-10-23T09:49:58.789Z,1.00
2022-10-23T09:52:35.991Z,1.00
2022-10-23T09:55:20.803Z,1.00
2022-10-23T09:57:51.501Z,1.00
2022-10-23T10:00:23.868Z,1.00
2022-10-23T10:03:01.067Z,1.00
2022-10-23T10:06:03.305Z,1.00
2022-10-23T10:08:40.897Z,1.00
2022-10-23T10:11:20.696Z,1.00
2022-10-23T10:14:09.199Z,1.00
2022-10-23T10:16:50.066Z,1.00
2022-10-23T10:19:33.552Z,1.00
2022-10-23T10:22:12.369Z,1.00
2022-10-23T10:24:52.378Z,1.00
2022-10-23T10:27:39.204Z,1.00
2022-10-23T10:30:15.919Z,1.00
2022-10-23T10:32:56.728Z,1.00
2022-10-23T10:35:38.954Z,1.00
2022-10-23T10:38:36.255Z,1.00
2022-10-23T10:41:30.690Z,1.00
2022-10-23T10:44:39.287Z,1.00
2022-10-23T10:47:21.365Z,1.00
2022-10-23T10:50:03.969Z,1.00
2022-10-23T10:53:11.457Z,1.00
2022-10-23T10:55:43.287Z,1.00
2022-10-23T10:58:23.560Z,1.00
2022-10-23T11:00:56.997Z,1.00
2022-10-23T11:03:39.926Z,1.00
2022-10-23T11:06:17.294Z,1.00
2022-10-23T11:09:03.850Z,1.00
2022-10-23T11:11:41.437Z,1.00
2022-10-23T11:14:17.530Z,1.00
2022-10-23T11:16:53.295Z,1.00
2022-10-23T11:19:28.593Z,1.00
2022-10-23T11:22:03.544Z,1.00
2022-10-23T11:25:07.958Z,1.00
2022-10-23T11:28:03.325Z,1.00
2022-10-23T11:30:48.507Z,1.00
2022-10-23T11:33:52.031Z,1.00
2022-10-23T11:36:34.990Z,1.00
2022-10-23T11:39:19.297Z,1.00
2022-10-23T11:41:57.453Z,1.00
2022-10-23T11:44:40.597Z,1.00
2022-10-23T11:47:39.217Z,1.00
2022-10-23T11:50:28.978Z,1.00
2022-10-23T11:53:13.869Z,1.00
2022-10-23T11:56:01.224Z,1.00
2022-10-23T11:58:44.553Z,1.00
2022-10-23T12:01:43.926Z,1.00
2022-10-23T12:04:23.710Z,1.00
2022-10-23T12:06:56.657Z,1.00
2022-10-23T12:09:28.598Z,1.00
2022-10-23T12:12:17.062Z,1.00
2022-10-23T12:14:49.448Z,1.00
2022-10-23T12:17:39.024Z,1.00
2022-10-23T12:20:25.295Z,1.00
2022-10-23T12:23:37.585Z,1.00
2022-10-23T12:26:31.119Z,1.00
2022-10-23T12:29:12.942Z,1.00
2022-10-23T12:31:54.691Z,1.00
2022-10-23T12:34:41.872Z,1.00
2022-10-23T12:37:51.504Z,1.00
2022-10-23T12:40:21.962Z,1.00
2022-10-23T12:42:56.921Z,1.00
2022-10-23T12:45:29.071Z,1.00
2022-10-23T12:48:01.121Z,1.00
2022-10-23T12:50:31.900Z,1.00
2022-10-23T12:53:06.032Z,1.00
2022-10-23T12:55:50.944Z,1.00
2022-10-23T12:58:25.755Z,1.00
2022-10-23T13:01:01.245Z,1.00
2022-10-23T13:03:36.220Z,1.00
2022-10-23T13:06:05.823Z,1.00
2022-10-23T13:08:40.682Z,1.00
2022-10-23T13:11:29.016Z,1.00
2022-10-23T13:14:01.736Z,1.00
2022-10-23T13:16:31.146Z,1.00
2022-10-23T13:19:00.681Z,1.00
2022-10-23T13:21:32.336Z,1.00
2022-10-23T13:24:01.761Z,1.00
2022-10-23T13:26:36.053Z,1.00
2022-10-23T13:29:16.923Z,1.00
2022-10-23T13:31:45.192Z,1.00
2022-10-23T13:34:24.763Z,1.00
2022-10-23T13:37:04.655Z,1.00
2022-10-23T13:39:35.311Z,1.00
2022-10-23T13:42:14.550Z,1.00
2022-10-23T13:44:43.364Z,1.00
2022-10-23T13:47:15.347Z,1.00
2022-10-23T13:49:44.907Z,1.00
2022-10-23T13:52:21.225Z,1.00
2022-10-23T13:57:19.358Z,1.00
2022-10-23T13:59:48.680Z,1.00
2022-10-23T14:02:23.074Z,1.00
2022-10-23T14:04:53.475Z,1.00
2022-10-23T14:07:22.878Z,1.00
2022-10-23T14:12:23.223Z,1.00
2022-10-23T14:14:52.989Z,1.00
2022-10-23T14:17:23.988Z,1.00
2022-10-23T14:19:55.477Z,1.00
2022-10-23T14:22:24.886Z,1.00
2022-10-23T14:24:54.389Z,1.00
2022-10-23T14:27:22.706Z,1.00
2022-10-23T14:29:50.830Z,1.00
2022-10-23T14:32:21.786Z,1.00
2022-10-23T14:34:55.239Z,1.00
2022-10-23T14:37:25.788Z,1.00
2022-10-23T14:39:55.149Z,1.00
2022-10-23T14:42:23.294Z,1.00
2022-10-23T14:44:52.972Z,1.00
2022-10-23T14:47:23.696Z,1.00
2022-10-23T14:49:56.130Z,1.00
2022-10-23T14:52:27.060Z,1.00
2022-10-23T14:54:55.436Z,1.00
2022-10-23T14:57:23.748Z,1.00
2022-10-23T15:02:20.516Z,1.00
2022-10-23T15:04:48.690Z,1.00
2022-10-23T15:07:21.233Z,1.00
2022-10-23T15:09:51.761Z,1.00
2022-10-23T15:12:21.282Z,1.00
2022-10-23T15:14:49.516Z,1.00
2022-10-23T15:17:20.086Z,1.00
2022-10-23T15:19:49.530Z,1.00
2022-10-23T15:22:19.796Z,1.00
2022-10-23T15:24:49.144Z,1.00
2022-10-23T15:27:17.426Z,1.00
2022-10-23T15:29:46.855Z,1.00
2022-10-23T15:32:18.982Z,1.00
2022-10-23T15:34:49.701Z,1.00
2022-10-23T15:37:21.772Z,1.00
2022-10-23T15:39:51.141Z,1.00
2022-10-23T15:42:21.919Z,1.00
2022-10-23T15:44:51.917Z,1.00
2022-10-23T15:47:21.317Z,1.00
2022-10-23T15:49:50.730Z,1.00
2022-10-23T15:54:51.211Z,1.00
2022-10-23T15:57:20.589Z,1.00
2022-10-23T16:02:18.729Z,1.00
2022-10-23T16:04:48.183Z,1.00
2022-10-23T16:09:48.708Z,1.00
2022-10-23T16:12:18.325Z,1.00
2022-10-23T16:14:47.868Z,1.00
2022-10-23T16:22:20.400Z,1.00
2022-10-23T16:24:51.241Z,1.00
2022-10-23T16:27:20.661Z,1.00
2022-10-23T16:29:50.060Z,1.00
2022-10-23T16:32:19.455Z,1.00
2022-10-23T16:34:47.627Z,1.00
2022-10-23T16:37:17.080Z,1.00
2022-10-23T16:39:57.746Z,1.00
2022-10-23T16:45:28.316Z,1.00
2022-10-23T16:47:57.840Z,1.00
2022-10-23T16:50:27.217Z,1.00
2022-10-23T16:52:57.856Z,1.00
2022-10-23T16:55:27.426Z,1.00
2022-10-23T17:00:34.684Z,1.00
2022-10-23T17:03:05.891Z,1.00
2022-10-23T17:05:36.398Z,1.00
2022-10-23T17:08:05.776Z,1.00
2022-10-23T17:10:36.567Z,1.00
2022-10-23T17:13:07.115Z,1.00
2022-10-23T17:15:35.281Z,1.00
2022-10-23T17:18:06.902Z,1.00
2022-10-23T17:20:36.276Z,1.00
2022-10-23T17:23:06.822Z,9.90
2022-10-23T17:25:40.980Z,33.60
2022-10-23T17:30:39.478Z,92.20
2022-10-23T17:33:08.916Z,99.90
2022-10-23T17:35:39.415Z,99.90
2022-10-23T17:38:10.009Z,99.90
2022-10-23T17:40:40.352Z,99.90
2022-10-23T17:48:11.741Z,99.90
2022-10-23T17:50:41.951Z,99.90
2022-10-23T17:55:43.015Z,99.90
2022-10-23T17:58:12.390Z,99.90
2022-10-23T18:00:40.507Z,99.90
2022-10-23T18:08:15.391Z,99.90
2022-10-23T18:10:46.097Z,99.90
2022-10-23T18:13:15.512Z,99.90
2022-10-23T18:15:44.900Z,99.90
2022-10-23T18:18:15.474Z,99.90
2022-10-23T18:20:43.682Z,99.90
2022-10-23T18:23:13.071Z,99.90
2022-10-23T18:25:46.127Z,99.90
2022-10-23T18:28:15.542Z,99.90
2022-10-23T18:30:44.715Z,99.90
2022-10-23T18:33:16.666Z,99.90
2022-10-23T18:35:46.985Z,99.90
2022-10-23T18:38:16.060Z,99.90
2022-10-23T18:40:45.984Z,99.90
2022-10-23T18:43:20.006Z,99.90
2022-10-23T18:51:00.750Z,99.90
2022-10-23T18:53:31.458Z,99.90
2022-10-23T18:56:01.277Z,99.90
2022-10-23T18:58:31.896Z,99.90
2022-10-23T19:01:00.192Z,99.90
2022-10-23T19:03:29.648Z,1.00
2022-10-23T19:08:27.952Z,1.00
2022-10-23T19:11:00.162Z,1.00
2022-10-23T19:13:35.259Z,1.00
2022-10-23T19:16:11.511Z,1.00
2022-10-23T19:18:42.907Z,1.00
2022-10-23T19:21:13.095Z,1.00
2022-10-23T19:23:45.321Z,1.00
2022-10-23T19:26:15.115Z,1.00
2022-10-23T19:28:49.149Z,1.00
2022-10-23T19:31:17.370Z,1.00
2022-10-23T19:33:46.787Z,1.00
2022-10-23T19:36:18.586Z,1.00
2022-10-23T19:38:50.329Z,1.00
2022-10-23T19:41:18.854Z,1.00
2022-10-23T19:43:48.433Z,1.00
2022-10-23T19:46:17.801Z,1.00
2022-10-23T19:48:46.780Z,1.00
2022-10-23T19:51:15.056Z,1.00
2022-10-23T19:53:45.617Z,1.00
2022-10-23T19:56:15.140Z,1.00
2022-10-23T19:58:43.326Z,1.00
2022-10-23T20:01:15.336Z,1.00
2022-10-23T20:03:45.654Z,1.00
2022-10-23T20:06:18.422Z,1.00
2022-10-23T20:08:47.092Z,1.00
2022-10-23T20:11:20.298Z,1.00
2022-10-23T20:13:50.288Z,1.00
2022-10-23T20:16:22.801Z,1.00
2022-10-23T20:18:52.657Z,1.00
2022-10-23T20:21:21.013Z,1.00
2022-10-23T20:23:49.533Z,1.00
2022-10-23T20:26:21.260Z,1.00
2022-10-23T20:28:54.095Z,1.00
2022-10-23T20:31:27.375Z,1.00
2022-10-23T20:33:56.877Z,1.00
2022-10-23T20:36:29.352Z,1.00
2022-10-23T20:38:59.015Z,1.00
2022-10-23T20:41:30.126Z,1.00
2022-10-23T20:44:00.311Z,1.00
2022-10-23T20:46:32.499Z,1.00
2022-10-23T20:51:31.621Z,1.00
2022-10-23T20:53:59.856Z,1.00
2022-10-23T20:56:31.158Z,1.00
2022-10-23T20:59:03.966Z,1.00
2022-10-23T21:01:35.943Z,1.00
2022-10-23T21:04:05.523Z,1.00
2022-10-23T21:06:51.588Z,1.00
2022-10-23T21:09:24.376Z,1.00
2022-10-23T21:11:54.944Z,1.00
2022-10-23T21:14:24.357Z,1.00
2022-10-23T21:16:55.152Z,1.00
2022-10-23T21:19:23.438Z,1.00
2022-10-23T21:21:52.788Z,1.00
2022-10-23T21:24:20.925Z,1.00
2022-10-23T21:26:50.349Z,1.00
2022-10-23T21:29:20.586Z,1.00
2022-10-23T21:31:56.898Z,1.00
2022-10-23T21:34:27.279Z,1.00
2022-10-23T21:37:13.771Z,1.00
2022-10-23T21:39:42.957Z,1.00
2022-10-23T21:42:12.969Z,1.00
2022-10-23T21:44:41.113Z,1.00
2022-10-23T21:47:11.907Z,1.00
2022-10-23T21:49:40.051Z,1.00
2022-10-23T21:52:08.232Z,1.00
2022-10-23T21:54:36.417Z,1.00
2022-10-23T21:57:06.104Z,1.00
2022-10-23T21:59:36.498Z,1.00
2022-10-23T22:02:07.268Z,1.00
2022-10-23T22:04:37.803Z,1.00
2022-10-23T22:07:12.015Z,1.00
2022-10-23T22:09:42.235Z,1.00
2022-10-23T22:12:12.625Z,1.00
2022-10-23T22:14:42.493Z,1.00
2022-10-23T22:17:13.036Z,1.00
2022-10-23T22:19:44.027Z,1.00
2022-10-23T22:22:13.379Z,1.00
2022-10-23T22:24:41.560Z,1.00
2022-10-23T22:29:38.173Z,1.00
2022-10-23T22:32:08.027Z,1.00
2022-10-23T22:37:27.075Z,1.00
2022-10-23T22:39:55.280Z,1.00
2022-10-23T22:44:54.307Z,1.00
2022-10-23T22:47:24.841Z,1.00
2022-10-23T22:49:54.170Z,1.00
2022-10-23T22:52:23.516Z,1.00
2022-10-23T22:54:54.525Z,1.00
2022-10-23T22:57:22.720Z,1.00
2022-10-23T22:59:50.870Z,1.00
2022-10-23T23:02:19.132Z,1.00
2022-10-23T23:04:48.443Z,1.00
2022-10-23T23:07:16.676Z,1.00
2022-10-23T23:09:45.615Z,1.00
2022-10-23T23:12:17.325Z,1.00
2022-10-23T23:14:46.843Z,1.00
2022-10-23T23:19:44.688Z,1.00
2022-10-23T23:27:16.123Z,1.00
2022-10-23T23:29:44.280Z,1.00
2022-10-23T23:34:43.367Z,1.00
2022-10-23T23:37:12.744Z,1.00
2022-10-23T23:39:42.114Z,1.00
2022-10-23T23:42:11.464Z,1.00
2022-10-23T23:44:50.381Z,1.00
2022-10-23T23:47:33.116Z,1.00
2022-10-23T23:50:03.661Z,1.00
2022-10-23T23:52:31.852Z,1.00
2022-10-23T23:55:01.252Z,1.00
2022-10-23T23:57:30.749Z,1.00
